sensor_id;sensor_type;location;lat;lon;timestamp;P1;durP1;ratioP1;P2;durP2;ratioP2
13204;SDS011;6667;52.634;9.226;2023-02-07T00:00:52;10.87;;;7.63;;
13204;SDS011;6667;52.634;9.226;2023-02-07T00:03:18;10.80;;;7.30;;
13204;SDS011;6667;52.634;9.226;2023-02-07T00:05:45;10.63;;;7.37;;
13204;SDS011;6667;52.634;9.226;2023-02-07T00:08:12;10.67;;;7.20;;
13204;SDS011;6667;52.634;9.226;2023-02-07T00:10:40;13.97;;;7.03;;
13204;SDS011;6667;52.634;9.226;2023-02-07T00:13:07;10.87;;;6.20;;
13204;SDS011;6667;52.634;9.226;2023-02-07T00:15:33;11.63;;;6.87;;
13204;SDS011;6667;52.634;9.226;2023-02-07T00:18:00;11.10;;;7.43;;
13204;SDS011;6667;52.634;9.226;2023-02-07T00:20:26;13.40;;;7.27;;
13204;SDS011;6667;52.634;9.226;2023-02-07T00:22:53;12.50;;;7.23;;
13204;SDS011;6667;52.634;9.226;2023-02-07T00:25:20;10.90;;;6.80;;
13204;SDS011;6667;52.634;9.226;2023-02-07T00:27:48;9.87;;;6.87;;
13204;SDS011;6667;52.634;9.226;2023-02-07T00:30:16;9.77;;;6.47;;
13204;SDS011;6667;52.634;9.226;2023-02-07T00:32:43;11.47;;;7.27;;
13204;SDS011;6667;52.634;9.226;2023-02-07T00:35:10;9.63;;;5.50;;
13204;SDS011;6667;52.634;9.226;2023-02-07T00:37:36;11.40;;;6.87;;
13204;SDS011;6667;52.634;9.226;2023-02-07T00:40:03;10.37;;;6.43;;
13204;SDS011;6667;52.634;9.226;2023-02-07T00:42:31;13.53;;;6.73;;
13204;SDS011;6667;52.634;9.226;2023-02-07T00:44:58;11.07;;;6.77;;
13204;SDS011;6667;52.634;9.226;2023-02-07T00:47:25;12.07;;;7.30;;
13204;SDS011;6667;52.634;9.226;2023-02-07T00:49:52;11.57;;;6.90;;
13204;SDS011;6667;52.634;9.226;2023-02-07T00:52:18;10.50;;;6.73;;
13204;SDS011;6667;52.634;9.226;2023-02-07T00:54:45;9.63;;;6.43;;
13204;SDS011;6667;52.634;9.226;2023-02-07T00:57:11;10.07;;;6.47;;
13204;SDS011;6667;52.634;9.226;2023-02-07T00:59:38;12.43;;;6.63;;
13204;SDS011;6667;52.634;9.226;2023-02-07T01:02:06;10.67;;;6.93;;
13204;SDS011;6667;52.634;9.226;2023-02-07T01:04:32;7.87;;;6.37;;
13204;SDS011;6667;52.634;9.226;2023-02-07T01:06:59;7.43;;;5.83;;
13204;SDS011;6667;52.634;9.226;2023-02-07T01:09:26;9.60;;;6.17;;
13204;SDS011;6667;52.634;9.226;2023-02-07T01:11:52;9.27;;;6.27;;
13204;SDS011;6667;52.634;9.226;2023-02-07T01:14:19;10.43;;;6.23;;
13204;SDS011;6667;52.634;9.226;2023-02-07T01:16:46;11.03;;;6.97;;
13204;SDS011;6667;52.634;9.226;2023-02-07T01:19:15;10.43;;;6.20;;
13204;SDS011;6667;52.634;9.226;2023-02-07T01:21:43;10.37;;;6.33;;
13204;SDS011;6667;52.634;9.226;2023-02-07T01:24:10;9.97;;;6.53;;
13204;SDS011;6667;52.634;9.226;2023-02-07T01:26:37;10.20;;;7.17;;
13204;SDS011;6667;52.634;9.226;2023-02-07T01:29:04;10.17;;;6.17;;
13204;SDS011;6667;52.634;9.226;2023-02-07T01:31:31;10.20;;;6.43;;
13204;SDS011;6667;52.634;9.226;2023-02-07T01:33:58;12.20;;;6.97;;
13204;SDS011;6667;52.634;9.226;2023-02-07T01:36:27;10.37;;;6.50;;
13204;SDS011;6667;52.634;9.226;2023-02-07T01:38:54;11.50;;;6.40;;
13204;SDS011;6667;52.634;9.226;2023-02-07T01:41:21;12.50;;;7.33;;
13204;SDS011;6667;52.634;9.226;2023-02-07T01:43:54;14.40;;;7.47;;
13204;SDS011;6667;52.634;9.226;2023-02-07T01:46:22;9.93;;;6.40;;
13204;SDS011;6667;52.634;9.226;2023-02-07T01:48:49;11.87;;;6.67;;
13204;SDS011;6667;52.634;9.226;2023-02-07T01:51:17;10.23;;;6.97;;
13204;SDS011;6667;52.634;9.226;2023-02-07T01:53:45;10.57;;;6.30;;
13204;SDS011;6667;52.634;9.226;2023-02-07T01:56:12;10.10;;;5.80;;
13204;SDS011;6667;52.634;9.226;2023-02-07T01:58:41;11.33;;;6.80;;
13204;SDS011;6667;52.634;9.226;2023-02-07T02:01:09;10.37;;;6.53;;
13204;SDS011;6667;52.634;9.226;2023-02-07T02:03:42;12.13;;;6.53;;
13204;SDS011;6667;52.634;9.226;2023-02-07T02:06:12;7.33;;;6.03;;
13204;SDS011;6667;52.634;9.226;2023-02-07T02:08:40;11.27;;;6.70;;
13204;SDS011;6667;52.634;9.226;2023-02-07T02:11:11;11.23;;;6.40;;
13204;SDS011;6667;52.634;9.226;2023-02-07T02:13:48;9.83;;;6.63;;
13204;SDS011;6667;52.634;9.226;2023-02-07T02:16:23;12.53;;;6.13;;
13204;SDS011;6667;52.634;9.226;2023-02-07T02:19:00;9.87;;;5.93;;
13204;SDS011;6667;52.634;9.226;2023-02-07T02:21:55;11.90;;;6.53;;
13204;SDS011;6667;52.634;9.226;2023-02-07T02:24:48;8.87;;;6.43;;
13204;SDS011;6667;52.634;9.226;2023-02-07T02:27:43;11.50;;;7.00;;
13204;SDS011;6667;52.634;9.226;2023-02-07T02:30:35;10.07;;;6.50;;
13204;SDS011;6667;52.634;9.226;2023-02-07T02:33:24;13.73;;;6.50;;
13204;SDS011;6667;52.634;9.226;2023-02-07T02:35:59;11.37;;;7.07;;
13204;SDS011;6667;52.634;9.226;2023-02-07T02:38:33;9.37;;;6.73;;
13204;SDS011;6667;52.634;9.226;2023-02-07T02:41:04;10.97;;;6.97;;
13204;SDS011;6667;52.634;9.226;2023-02-07T02:43:35;8.87;;;6.67;;
13204;SDS011;6667;52.634;9.226;2023-02-07T02:46:08;10.77;;;6.83;;
13204;SDS011;6667;52.634;9.226;2023-02-07T02:48:40;11.63;;;7.60;;
13204;SDS011;6667;52.634;9.226;2023-02-07T02:51:08;8.70;;;6.27;;
13204;SDS011;6667;52.634;9.226;2023-02-07T02:53:35;11.93;;;7.20;;
13204;SDS011;6667;52.634;9.226;2023-02-07T02:56:09;13.70;;;7.50;;
13204;SDS011;6667;52.634;9.226;2023-02-07T02:58:47;10.47;;;6.57;;
13204;SDS011;6667;52.634;9.226;2023-02-07T03:01:25;9.90;;;6.10;;
13204;SDS011;6667;52.634;9.226;2023-02-07T03:04:06;9.20;;;6.50;;
13204;SDS011;6667;52.634;9.226;2023-02-07T03:06:47;13.37;;;7.57;;
13204;SDS011;6667;52.634;9.226;2023-02-07T03:09:26;12.77;;;7.87;;
13204;SDS011;6667;52.634;9.226;2023-02-07T03:12:05;10.97;;;6.57;;
13204;SDS011;6667;52.634;9.226;2023-02-07T03:14:42;11.07;;;7.00;;
13204;SDS011;6667;52.634;9.226;2023-02-07T03:17:14;13.00;;;7.40;;
13204;SDS011;6667;52.634;9.226;2023-02-07T03:19:48;12.70;;;7.80;;
13204;SDS011;6667;52.634;9.226;2023-02-07T03:22:19;10.90;;;7.43;;
13204;SDS011;6667;52.634;9.226;2023-02-07T03:24:49;11.60;;;7.30;;
13204;SDS011;6667;52.634;9.226;2023-02-07T03:27:19;11.47;;;7.37;;
13204;SDS011;6667;52.634;9.226;2023-02-07T03:29:48;10.77;;;7.03;;
13204;SDS011;6667;52.634;9.226;2023-02-07T03:32:21;10.57;;;7.20;;
13204;SDS011;6667;52.634;9.226;2023-02-07T03:34:51;12.60;;;7.73;;
13204;SDS011;6667;52.634;9.226;2023-02-07T03:37:22;11.40;;;7.13;;
13204;SDS011;6667;52.634;9.226;2023-02-07T03:39:52;15.53;;;8.20;;
13204;SDS011;6667;52.634;9.226;2023-02-07T03:42:22;10.33;;;7.13;;
13204;SDS011;6667;52.634;9.226;2023-02-07T03:44:53;13.13;;;7.80;;
13204;SDS011;6667;52.634;9.226;2023-02-07T03:47:22;12.53;;;8.97;;
13204;SDS011;6667;52.634;9.226;2023-02-07T03:49:51;11.60;;;7.53;;
13204;SDS011;6667;52.634;9.226;2023-02-07T03:52:18;11.97;;;8.20;;
13204;SDS011;6667;52.634;9.226;2023-02-07T03:54:44;11.93;;;7.63;;
13204;SDS011;6667;52.634;9.226;2023-02-07T03:57:11;11.53;;;7.60;;
13204;SDS011;6667;52.634;9.226;2023-02-07T03:59:38;12.77;;;8.03;;
13204;SDS011;6667;52.634;9.226;2023-02-07T04:02:04;13.30;;;8.47;;
13204;SDS011;6667;52.634;9.226;2023-02-07T04:04:31;10.73;;;7.13;;
13204;SDS011;6667;52.634;9.226;2023-02-07T04:06:59;12.53;;;8.17;;
13204;SDS011;6667;52.634;9.226;2023-02-07T04:09:25;12.10;;;8.37;;
13204;SDS011;6667;52.634;9.226;2023-02-07T04:11:52;15.77;;;8.93;;
13204;SDS011;6667;52.634;9.226;2023-02-07T04:14:19;15.77;;;8.93;;
13204;SDS011;6667;52.634;9.226;2023-02-07T04:16:46;17.27;;;8.80;;
13204;SDS011;6667;52.634;9.226;2023-02-07T04:19:13;12.17;;;7.67;;
13204;SDS011;6667;52.634;9.226;2023-02-07T04:21:40;13.47;;;8.60;;
13204;SDS011;6667;52.634;9.226;2023-02-07T04:24:08;15.13;;;7.97;;
13204;SDS011;6667;52.634;9.226;2023-02-07T04:26:35;13.70;;;8.47;;
13204;SDS011;6667;52.634;9.226;2023-02-07T04:29:02;13.60;;;8.27;;
13204;SDS011;6667;52.634;9.226;2023-02-07T04:31:29;15.57;;;8.43;;
13204;SDS011;6667;52.634;9.226;2023-02-07T04:33:55;15.70;;;9.70;;
13204;SDS011;6667;52.634;9.226;2023-02-07T04:36:22;13.77;;;7.90;;
13204;SDS011;6667;52.634;9.226;2023-02-07T04:38:49;13.40;;;8.60;;
13204;SDS011;6667;52.634;9.226;2023-02-07T04:41:16;12.37;;;8.57;;
13204;SDS011;6667;52.634;9.226;2023-02-07T04:43:43;16.10;;;9.37;;
13204;SDS011;6667;52.634;9.226;2023-02-07T04:46:10;12.30;;;8.97;;
13204;SDS011;6667;52.634;9.226;2023-02-07T04:48:36;14.40;;;8.23;;
13204;SDS011;6667;52.634;9.226;2023-02-07T04:51:03;13.13;;;9.00;;
13204;SDS011;6667;52.634;9.226;2023-02-07T04:53:30;13.87;;;8.63;;
13204;SDS011;6667;52.634;9.226;2023-02-07T04:55:57;12.70;;;8.37;;
13204;SDS011;6667;52.634;9.226;2023-02-07T04:58:25;15.53;;;9.07;;
13204;SDS011;6667;52.634;9.226;2023-02-07T05:00:52;14.53;;;9.07;;
13204;SDS011;6667;52.634;9.226;2023-02-07T05:03:19;15.77;;;8.93;;
13204;SDS011;6667;52.634;9.226;2023-02-07T05:05:45;12.50;;;8.17;;
13204;SDS011;6667;52.634;9.226;2023-02-07T05:08:12;13.80;;;8.33;;
13204;SDS011;6667;52.634;9.226;2023-02-07T05:10:39;15.27;;;9.17;;
13204;SDS011;6667;52.634;9.226;2023-02-07T05:13:06;16.60;;;9.33;;
13204;SDS011;6667;52.634;9.226;2023-02-07T05:15:34;16.23;;;9.67;;
13204;SDS011;6667;52.634;9.226;2023-02-07T05:18:01;16.90;;;10.00;;
13204;SDS011;6667;52.634;9.226;2023-02-07T05:20:28;15.60;;;10.20;;
13204;SDS011;6667;52.634;9.226;2023-02-07T05:22:55;15.60;;;9.13;;
13204;SDS011;6667;52.634;9.226;2023-02-07T05:25:22;16.20;;;9.97;;
13204;SDS011;6667;52.634;9.226;2023-02-07T05:27:48;14.77;;;8.53;;
13204;SDS011;6667;52.634;9.226;2023-02-07T05:30:15;14.33;;;9.30;;
13204;SDS011;6667;52.634;9.226;2023-02-07T05:32:43;16.20;;;9.00;;
13204;SDS011;6667;52.634;9.226;2023-02-07T05:35:28;15.60;;;9.07;;
13204;SDS011;6667;52.634;9.226;2023-02-07T05:37:55;16.57;;;9.23;;
13204;SDS011;6667;52.634;9.226;2023-02-07T05:40:21;14.87;;;9.07;;
13204;SDS011;6667;52.634;9.226;2023-02-07T05:42:48;15.80;;;9.43;;
13204;SDS011;6667;52.634;9.226;2023-02-07T05:45:15;15.03;;;9.70;;
13204;SDS011;6667;52.634;9.226;2023-02-07T05:47:41;12.93;;;8.20;;
13204;SDS011;6667;52.634;9.226;2023-02-07T05:50:09;16.07;;;9.40;;
13204;SDS011;6667;52.634;9.226;2023-02-07T05:52:36;14.73;;;9.10;;
13204;SDS011;6667;52.634;9.226;2023-02-07T05:55:03;17.10;;;9.37;;
13204;SDS011;6667;52.634;9.226;2023-02-07T05:57:30;16.03;;;9.10;;
13204;SDS011;6667;52.634;9.226;2023-02-07T05:59:57;13.87;;;9.20;;
13204;SDS011;6667;52.634;9.226;2023-02-07T06:02:23;18.67;;;10.27;;
13204;SDS011;6667;52.634;9.226;2023-02-07T06:04:51;14.97;;;9.33;;
13204;SDS011;6667;52.634;9.226;2023-02-07T06:07:18;16.40;;;10.37;;
13204;SDS011;6667;52.634;9.226;2023-02-07T06:09:44;17.53;;;9.63;;
13204;SDS011;6667;52.634;9.226;2023-02-07T06:12:11;14.73;;;9.07;;
13204;SDS011;6667;52.634;9.226;2023-02-07T06:14:38;18.53;;;11.00;;
13204;SDS011;6667;52.634;9.226;2023-02-07T06:17:04;14.23;;;8.93;;
13204;SDS011;6667;52.634;9.226;2023-02-07T06:19:31;14.90;;;9.60;;
13204;SDS011;6667;52.634;9.226;2023-02-07T06:21:59;18.30;;;10.47;;
13204;SDS011;6667;52.634;9.226;2023-02-07T06:24:25;19.10;;;10.57;;
13204;SDS011;6667;52.634;9.226;2023-02-07T06:26:52;19.27;;;11.37;;
13204;SDS011;6667;52.634;9.226;2023-02-07T06:29:19;19.03;;;10.03;;
13204;SDS011;6667;52.634;9.226;2023-02-07T06:31:45;18.10;;;10.23;;
13204;SDS011;6667;52.634;9.226;2023-02-07T06:34:12;14.83;;;9.47;;
13204;SDS011;6667;52.634;9.226;2023-02-07T06:36:38;16.20;;;10.23;;
13204;SDS011;6667;52.634;9.226;2023-02-07T06:39:06;19.43;;;9.90;;
13204;SDS011;6667;52.634;9.226;2023-02-07T06:41:33;17.00;;;9.60;;
13204;SDS011;6667;52.634;9.226;2023-02-07T06:44:00;15.57;;;8.33;;
13204;SDS011;6667;52.634;9.226;2023-02-07T06:46:26;18.93;;;9.97;;
13204;SDS011;6667;52.634;9.226;2023-02-07T06:48:53;16.57;;;10.03;;
13204;SDS011;6667;52.634;9.226;2023-02-07T06:51:19;16.03;;;9.50;;
13204;SDS011;6667;52.634;9.226;2023-02-07T06:53:46;18.03;;;9.80;;
13204;SDS011;6667;52.634;9.226;2023-02-07T06:56:14;19.13;;;10.33;;
13204;SDS011;6667;52.634;9.226;2023-02-07T06:58:41;16.07;;;10.37;;
13204;SDS011;6667;52.634;9.226;2023-02-07T07:01:07;16.80;;;10.37;;
13204;SDS011;6667;52.634;9.226;2023-02-07T07:03:34;16.77;;;8.97;;
13204;SDS011;6667;52.634;9.226;2023-02-07T07:06:00;21.17;;;9.80;;
13204;SDS011;6667;52.634;9.226;2023-02-07T07:08:27;21.10;;;10.07;;
13204;SDS011;6667;52.634;9.226;2023-02-07T07:10:54;23.63;;;11.23;;
13204;SDS011;6667;52.634;9.226;2023-02-07T07:13:23;18.93;;;10.70;;
13204;SDS011;6667;52.634;9.226;2023-02-07T07:15:49;20.23;;;10.23;;
13204;SDS011;6667;52.634;9.226;2023-02-07T07:18:16;19.33;;;11.50;;
13204;SDS011;6667;52.634;9.226;2023-02-07T07:20:42;17.50;;;11.53;;
13204;SDS011;6667;52.634;9.226;2023-02-07T07:23:09;17.47;;;10.97;;
13204;SDS011;6667;52.634;9.226;2023-02-07T07:25:36;20.90;;;11.37;;
13204;SDS011;6667;52.634;9.226;2023-02-07T07:28:02;15.80;;;9.87;;
13204;SDS011;6667;52.634;9.226;2023-02-07T07:30:30;19.80;;;10.43;;
13204;SDS011;6667;52.634;9.226;2023-02-07T07:32:57;17.83;;;10.30;;
13204;SDS011;6667;52.634;9.226;2023-02-07T07:35:23;20.60;;;10.03;;
13204;SDS011;6667;52.634;9.226;2023-02-07T07:37:50;20.03;;;11.07;;
13204;SDS011;6667;52.634;9.226;2023-02-07T07:40:17;18.70;;;10.73;;
13204;SDS011;6667;52.634;9.226;2023-02-07T07:42:43;19.17;;;11.10;;
13204;SDS011;6667;52.634;9.226;2023-02-07T07:45:10;17.47;;;11.27;;
13204;SDS011;6667;52.634;9.226;2023-02-07T07:47:38;16.67;;;10.33;;
13204;SDS011;6667;52.634;9.226;2023-02-07T07:50:05;20.80;;;12.13;;
13204;SDS011;6667;52.634;9.226;2023-02-07T07:52:32;16.53;;;11.17;;
13204;SDS011;6667;52.634;9.226;2023-02-07T07:54:59;19.97;;;10.70;;
13204;SDS011;6667;52.634;9.226;2023-02-07T07:57:26;20.03;;;11.53;;
13204;SDS011;6667;52.634;9.226;2023-02-07T07:59:53;19.73;;;11.97;;
13204;SDS011;6667;52.634;9.226;2023-02-07T08:02:20;20.03;;;10.97;;
13204;SDS011;6667;52.634;9.226;2023-02-07T08:04:49;18.73;;;11.17;;
13204;SDS011;6667;52.634;9.226;2023-02-07T08:07:16;22.17;;;12.00;;
13204;SDS011;6667;52.634;9.226;2023-02-07T08:09:43;17.60;;;10.60;;
13204;SDS011;6667;52.634;9.226;2023-02-07T08:12:10;21.20;;;11.67;;
13204;SDS011;6667;52.634;9.226;2023-02-07T08:14:36;21.20;;;12.00;;
13204;SDS011;6667;52.634;9.226;2023-02-07T08:17:03;17.97;;;11.47;;
13204;SDS011;6667;52.634;9.226;2023-02-07T08:19:29;19.00;;;12.33;;
13204;SDS011;6667;52.634;9.226;2023-02-07T08:21:57;22.73;;;12.83;;
13204;SDS011;6667;52.634;9.226;2023-02-07T08:24:24;20.97;;;11.43;;
13204;SDS011;6667;52.634;9.226;2023-02-07T08:26:52;23.50;;;12.43;;
13204;SDS011;6667;52.634;9.226;2023-02-07T08:29:18;24.27;;;12.47;;
13204;SDS011;6667;52.634;9.226;2023-02-07T08:31:45;24.87;;;13.80;;
13204;SDS011;6667;52.634;9.226;2023-02-07T08:34:13;21.20;;;12.23;;
13204;SDS011;6667;52.634;9.226;2023-02-07T08:36:39;23.93;;;12.93;;
13204;SDS011;6667;52.634;9.226;2023-02-07T08:39:08;22.47;;;13.20;;
13204;SDS011;6667;52.634;9.226;2023-02-07T08:41:34;18.63;;;12.03;;
13204;SDS011;6667;52.634;9.226;2023-02-07T08:44:01;22.23;;;12.83;;
13204;SDS011;6667;52.634;9.226;2023-02-07T08:46:28;26.57;;;13.70;;
13204;SDS011;6667;52.634;9.226;2023-02-07T08:48:54;24.87;;;13.47;;
13204;SDS011;6667;52.634;9.226;2023-02-07T08:51:21;27.17;;;13.57;;
13204;SDS011;6667;52.634;9.226;2023-02-07T08:53:47;22.17;;;13.03;;
13204;SDS011;6667;52.634;9.226;2023-02-07T08:56:15;24.73;;;13.53;;
13204;SDS011;6667;52.634;9.226;2023-02-07T08:58:42;27.27;;;13.73;;
13204;SDS011;6667;52.634;9.226;2023-02-07T09:01:09;22.07;;;13.33;;
13204;SDS011;6667;52.634;9.226;2023-02-07T09:03:36;24.17;;;13.83;;
13204;SDS011;6667;52.634;9.226;2023-02-07T09:06:03;24.90;;;13.93;;
13204;SDS011;6667;52.634;9.226;2023-02-07T09:08:31;25.13;;;14.27;;
13204;SDS011;6667;52.634;9.226;2023-02-07T09:10:57;25.30;;;13.63;;
13204;SDS011;6667;52.634;9.226;2023-02-07T09:13:25;25.23;;;13.27;;
13204;SDS011;6667;52.634;9.226;2023-02-07T09:15:53;24.73;;;13.67;;
13204;SDS011;6667;52.634;9.226;2023-02-07T09:18:20;22.83;;;13.40;;
13204;SDS011;6667;52.634;9.226;2023-02-07T09:20:47;29.70;;;15.67;;
13204;SDS011;6667;52.634;9.226;2023-02-07T09:23:14;25.87;;;13.80;;
13204;SDS011;6667;52.634;9.226;2023-02-07T09:25:43;25.87;;;15.10;;
13204;SDS011;6667;52.634;9.226;2023-02-07T09:28:11;27.37;;;15.80;;
13204;SDS011;6667;52.634;9.226;2023-02-07T09:30:40;23.57;;;13.33;;
13204;SDS011;6667;52.634;9.226;2023-02-07T09:33:07;25.57;;;14.53;;
13204;SDS011;6667;52.634;9.226;2023-02-07T09:35:37;25.50;;;15.03;;
13204;SDS011;6667;52.634;9.226;2023-02-07T09:38:05;27.50;;;16.60;;
13204;SDS011;6667;52.634;9.226;2023-02-07T09:40:34;28.33;;;13.87;;
13204;SDS011;6667;52.634;9.226;2023-02-07T09:43:02;21.40;;;13.70;;
13204;SDS011;6667;52.634;9.226;2023-02-07T09:45:36;23.13;;;13.40;;
13204;SDS011;6667;52.634;9.226;2023-02-07T09:48:11;23.30;;;12.90;;
13204;SDS011;6667;52.634;9.226;2023-02-07T09:50:44;24.67;;;13.20;;
13204;SDS011;6667;52.634;9.226;2023-02-07T09:53:15;23.90;;;13.50;;
13204;SDS011;6667;52.634;9.226;2023-02-07T09:55:45;21.30;;;12.97;;
13204;SDS011;6667;52.634;9.226;2023-02-07T09:58:16;19.50;;;11.67;;
13204;SDS011;6667;52.634;9.226;2023-02-07T10:00:49;17.63;;;11.03;;
13204;SDS011;6667;52.634;9.226;2023-02-07T10:03:23;17.70;;;12.57;;
13204;SDS011;6667;52.634;9.226;2023-02-07T10:05:54;15.50;;;10.67;;
13204;SDS011;6667;52.634;9.226;2023-02-07T10:08:24;18.00;;;10.43;;
13204;SDS011;6667;52.634;9.226;2023-02-07T10:10:56;17.57;;;10.03;;
13204;SDS011;6667;52.634;9.226;2023-02-07T10:13:37;16.60;;;9.97;;
13204;SDS011;6667;52.634;9.226;2023-02-07T10:16:21;16.03;;;9.13;;
13204;SDS011;6667;52.634;9.226;2023-02-07T10:19:01;14.67;;;9.80;;
13204;SDS011;6667;52.634;9.226;2023-02-07T10:21:36;15.67;;;9.67;;
13204;SDS011;6667;52.634;9.226;2023-02-07T10:24:21;18.67;;;11.00;;
13204;SDS011;6667;52.634;9.226;2023-02-07T10:26:56;18.80;;;11.77;;
13204;SDS011;6667;52.634;9.226;2023-02-07T10:29:32;19.63;;;11.93;;
13204;SDS011;6667;52.634;9.226;2023-02-07T10:32:14;19.60;;;11.77;;
13204;SDS011;6667;52.634;9.226;2023-02-07T10:34:45;16.83;;;10.07;;
13204;SDS011;6667;52.634;9.226;2023-02-07T10:37:15;15.30;;;10.63;;
13204;SDS011;6667;52.634;9.226;2023-02-07T10:39:44;17.93;;;11.37;;
13204;SDS011;6667;52.634;9.226;2023-02-07T10:42:16;15.33;;;9.83;;
13204;SDS011;6667;52.634;9.226;2023-02-07T10:44:44;13.10;;;9.00;;
13204;SDS011;6667;52.634;9.226;2023-02-07T10:47:12;13.07;;;9.40;;
13204;SDS011;6667;52.634;9.226;2023-02-07T10:49:42;12.10;;;8.47;;
13204;SDS011;6667;52.634;9.226;2023-02-07T10:52:13;13.43;;;9.10;;
13204;SDS011;6667;52.634;9.226;2023-02-07T10:54:52;12.83;;;8.70;;
13204;SDS011;6667;52.634;9.226;2023-02-07T10:57:20;11.73;;;8.30;;
13204;SDS011;6667;52.634;9.226;2023-02-07T10:59:47;13.10;;;8.47;;
13204;SDS011;6667;52.634;9.226;2023-02-07T11:02:35;12.47;;;8.30;;
13204;SDS011;6667;52.634;9.226;2023-02-07T11:05:25;14.17;;;8.20;;
13204;SDS011;6667;52.634;9.226;2023-02-07T11:07:55;11.83;;;7.50;;
13204;SDS011;6667;52.634;9.226;2023-02-07T11:10:23;11.70;;;7.30;;
13204;SDS011;6667;52.634;9.226;2023-02-07T11:12:52;10.30;;;8.00;;
13204;SDS011;6667;52.634;9.226;2023-02-07T11:15:21;11.10;;;7.10;;
13204;SDS011;6667;52.634;9.226;2023-02-07T11:17:54;8.60;;;6.33;;
13204;SDS011;6667;52.634;9.226;2023-02-07T11:20:22;10.53;;;6.67;;
13204;SDS011;6667;52.634;9.226;2023-02-07T11:22:51;9.23;;;6.50;;
13204;SDS011;6667;52.634;9.226;2023-02-07T11:25:19;10.07;;;7.00;;
13204;SDS011;6667;52.634;9.226;2023-02-07T11:27:53;10.63;;;7.73;;
13204;SDS011;6667;52.634;9.226;2023-02-07T11:30:20;8.83;;;6.47;;
13204;SDS011;6667;52.634;9.226;2023-02-07T11:32:53;10.80;;;7.23;;
13204;SDS011;6667;52.634;9.226;2023-02-07T11:35:22;9.53;;;7.77;;
13204;SDS011;6667;52.634;9.226;2023-02-07T11:37:57;8.87;;;6.70;;
13204;SDS011;6667;52.634;9.226;2023-02-07T11:40:26;9.90;;;6.83;;
13204;SDS011;6667;52.634;9.226;2023-02-07T11:42:58;9.07;;;6.77;;
13204;SDS011;6667;52.634;9.226;2023-02-07T11:45:28;10.00;;;6.60;;
13204;SDS011;6667;52.634;9.226;2023-02-07T11:47:59;9.60;;;7.13;;
13204;SDS011;6667;52.634;9.226;2023-02-07T11:50:28;10.73;;;7.73;;
13204;SDS011;6667;52.634;9.226;2023-02-07T11:52:58;10.80;;;7.63;;
13204;SDS011;6667;52.634;9.226;2023-02-07T11:55:26;11.43;;;8.20;;
13204;SDS011;6667;52.634;9.226;2023-02-07T11:57:58;8.50;;;6.90;;
13204;SDS011;6667;52.634;9.226;2023-02-07T12:00:32;10.13;;;6.87;;
13204;SDS011;6667;52.634;9.226;2023-02-07T12:03:05;9.90;;;7.43;;
13204;SDS011;6667;52.634;9.226;2023-02-07T12:05:35;9.30;;;6.83;;
13204;SDS011;6667;52.634;9.226;2023-02-07T12:08:05;10.73;;;7.23;;
13204;SDS011;6667;52.634;9.226;2023-02-07T12:10:38;10.23;;;7.60;;
13204;SDS011;6667;52.634;9.226;2023-02-07T12:13:10;7.30;;;6.20;;
13204;SDS011;6667;52.634;9.226;2023-02-07T12:15:40;10.37;;;7.00;;
13204;SDS011;6667;52.634;9.226;2023-02-07T12:18:13;9.20;;;7.47;;
13204;SDS011;6667;52.634;9.226;2023-02-07T12:20:45;9.37;;;7.07;;
13204;SDS011;6667;52.634;9.226;2023-02-07T12:23:19;9.83;;;7.50;;
13204;SDS011;6667;52.634;9.226;2023-02-07T12:25:51;9.57;;;7.17;;
13204;SDS011;6667;52.634;9.226;2023-02-07T12:28:23;10.80;;;7.17;;
13204;SDS011;6667;52.634;9.226;2023-02-07T12:30:56;10.27;;;7.17;;
13204;SDS011;6667;52.634;9.226;2023-02-07T12:33:32;12.03;;;7.23;;
13204;SDS011;6667;52.634;9.226;2023-02-07T12:36:07;11.47;;;7.73;;
13204;SDS011;6667;52.634;9.226;2023-02-07T12:38:40;11.90;;;8.13;;
13204;SDS011;6667;52.634;9.226;2023-02-07T12:41:12;8.40;;;6.80;;
13204;SDS011;6667;52.634;9.226;2023-02-07T12:43:46;9.60;;;7.33;;
13204;SDS011;6667;52.634;9.226;2023-02-07T12:46:20;8.67;;;7.03;;
13204;SDS011;6667;52.634;9.226;2023-02-07T12:48:58;9.77;;;7.07;;
13204;SDS011;6667;52.634;9.226;2023-02-07T12:51:44;9.10;;;7.43;;
13204;SDS011;6667;52.634;9.226;2023-02-07T12:54:23;9.40;;;6.60;;
13204;SDS011;6667;52.634;9.226;2023-02-07T12:57:02;10.07;;;7.20;;
13204;SDS011;6667;52.634;9.226;2023-02-07T12:59:36;9.23;;;6.70;;
13204;SDS011;6667;52.634;9.226;2023-02-07T13:02:16;7.07;;;6.13;;
13204;SDS011;6667;52.634;9.226;2023-02-07T13:05:05;7.23;;;5.50;;
13204;SDS011;6667;52.634;9.226;2023-02-07T13:07:53;6.47;;;5.47;;
13204;SDS011;6667;52.634;9.226;2023-02-07T13:10:27;7.07;;;6.20;;
13204;SDS011;6667;52.634;9.226;2023-02-07T13:13:03;8.70;;;7.13;;
13204;SDS011;6667;52.634;9.226;2023-02-07T13:15:38;7.50;;;6.27;;
13204;SDS011;6667;52.634;9.226;2023-02-07T13:18:13;6.97;;;6.00;;
13204;SDS011;6667;52.634;9.226;2023-02-07T13:20:49;8.13;;;5.80;;
13204;SDS011;6667;52.634;9.226;2023-02-07T13:23:22;8.10;;;6.30;;
13204;SDS011;6667;52.634;9.226;2023-02-07T13:25:52;8.37;;;6.40;;
13204;SDS011;6667;52.634;9.226;2023-02-07T13:28:23;8.10;;;6.30;;
13204;SDS011;6667;52.634;9.226;2023-02-07T13:30:54;8.27;;;6.57;;
13204;SDS011;6667;52.634;9.226;2023-02-07T13:33:24;6.83;;;5.50;;
13204;SDS011;6667;52.634;9.226;2023-02-07T13:35:57;6.67;;;5.40;;
13204;SDS011;6667;52.634;9.226;2023-02-07T13:38:36;7.47;;;5.60;;
13204;SDS011;6667;52.634;9.226;2023-02-07T13:41:11;8.10;;;6.07;;
13204;SDS011;6667;52.634;9.226;2023-02-07T13:43:48;7.43;;;6.13;;
13204;SDS011;6667;52.634;9.226;2023-02-07T13:46:25;8.80;;;5.90;;
13204;SDS011;6667;52.634;9.226;2023-02-07T13:49:06;8.13;;;6.57;;
13204;SDS011;6667;52.634;9.226;2023-02-07T13:51:40;8.00;;;6.20;;
13204;SDS011;6667;52.634;9.226;2023-02-07T13:54:17;7.60;;;6.43;;
13204;SDS011;6667;52.634;9.226;2023-02-07T13:56:55;8.17;;;5.67;;
13204;SDS011;6667;52.634;9.226;2023-02-07T13:59:41;8.90;;;6.83;;
13204;SDS011;6667;52.634;9.226;2023-02-07T14:02:12;8.23;;;6.40;;
13204;SDS011;6667;52.634;9.226;2023-02-07T14:04:46;8.77;;;6.97;;
13204;SDS011;6667;52.634;9.226;2023-02-07T14:07:19;8.43;;;6.20;;
13204;SDS011;6667;52.634;9.226;2023-02-07T14:09:50;8.77;;;6.40;;
13204;SDS011;6667;52.634;9.226;2023-02-07T14:12:20;7.90;;;6.00;;
13204;SDS011;6667;52.634;9.226;2023-02-07T14:14:49;8.03;;;6.13;;
13204;SDS011;6667;52.634;9.226;2023-02-07T14:23:13;7.53;;;5.90;;
13204;SDS011;6667;52.634;9.226;2023-02-07T14:25:42;7.73;;;6.30;;
13204;SDS011;6667;52.634;9.226;2023-02-07T14:28:19;8.50;;;6.03;;
13204;SDS011;6667;52.634;9.226;2023-02-07T14:30:56;8.50;;;6.20;;
13204;SDS011;6667;52.634;9.226;2023-02-07T14:33:28;8.00;;;5.63;;
13204;SDS011;6667;52.634;9.226;2023-02-07T14:36:06;6.40;;;5.47;;
13204;SDS011;6667;52.634;9.226;2023-02-07T14:38:59;8.37;;;5.87;;
13204;SDS011;6667;52.634;9.226;2023-02-07T14:41:31;8.23;;;6.00;;
13204;SDS011;6667;52.634;9.226;2023-02-07T14:44:00;9.63;;;6.47;;
13204;SDS011;6667;52.634;9.226;2023-02-07T14:46:29;8.13;;;5.93;;
13204;SDS011;6667;52.634;9.226;2023-02-07T14:48:59;6.90;;;5.20;;
13204;SDS011;6667;52.634;9.226;2023-02-07T14:51:29;8.50;;;5.93;;
13204;SDS011;6667;52.634;9.226;2023-02-07T14:54:06;8.17;;;6.00;;
13204;SDS011;6667;52.634;9.226;2023-02-07T14:56:41;7.60;;;6.00;;
13204;SDS011;6667;52.634;9.226;2023-02-07T14:59:13;9.07;;;6.07;;
13204;SDS011;6667;52.634;9.226;2023-02-07T15:01:42;8.10;;;5.57;;
13204;SDS011;6667;52.634;9.226;2023-02-07T15:04:09;7.20;;;5.40;;
13204;SDS011;6667;52.634;9.226;2023-02-07T15:06:38;8.63;;;6.30;;
13204;SDS011;6667;52.634;9.226;2023-02-07T15:09:15;6.50;;;5.10;;
13204;SDS011;6667;52.634;9.226;2023-02-07T15:11:44;7.17;;;5.47;;